Glyndon, Maryland
Current Conditions -  °F | °C
As of 11:15 AM on Thursday 23 Oct 2014 (Local Time) from KDMW Reporting Station
Overcast Overcast  
Wind Chill: 55°   Ceiling: 3100
Heat Index: 55°   Visibility: 10mi
Dew Point: 45°   Wind: 13mph
Humidity: 67%   Direction: 320°NW
Pressure: 29.89"   Gusts: 21mph
Location:  39.48°N, 76.82°W
Report Text: KDMW 231515Z AUTO 32011G18KT 10SM OVC031 13/07 A2989 RMK AO2
Loading
Personal Weather Stations






























Interactive Weather Map
Tropical Storm Tracking
New forecast layout! Learn more

10-Day Weather Forecast

Advertisements
Track Severe Weather on mobile